South Portland, Maine
Current Conditions -  °F | °C
As of 6:05 PM on Monday 24 Nov 2014 (Local Time) from KPWM Reporting Station
Broken Clouds Broken Clouds  
Wind Chill: 16°   Ceiling: 900
Heat Index: 16°   Visibility: 8mi
Dew Point: 14°   Wind: 15mph
Humidity: 90%   Direction: 190°S
Pressure: 29.54"   Gusts: 23mph
Location:  43.64°N, 70.25°W
Report Text: KPWM 242305Z 19013G20KT 8SM BKN009 16/14 A2954 RMK AO2 T01560139
Loading
Personal Weather Stations






























Interactive Weather Map New forecast layout! Learn more

10-Day Weather Forecast

Advertisements
Track Severe Weather on mobile